Hernandez, Argentina
Current Conditions -  °F | °C
As of 1:00 PM on Sunday 23 Nov 2014 (Local Time) from SAAR Reporting Station
Clear Clear  
Wind Chill: 82°   Ceiling: Unl
Heat Index: 82°   Visibility: 6mi
Dew Point: 59°   Wind: 16mph
Humidity: 45%   Direction: 360°N
Pressure: 29.83"   Gusts: NA
Location:  32.35°S, 60.03°W
Report Text: SAAR 231600Z 36014KT CAVOK 28/15 Q1010
Loading
Personal Weather Stations






























Interactive Weather Map New forecast layout! Learn more

10-Day Weather Forecast

Advertisements
Track Severe Weather on mobile